createdAt,value
2022-08-14T00:00:10.669Z,26.31
2022-08-14T00:01:15.261Z,26.30
2022-08-14T00:02:27.169Z,26.27
2022-08-14T00:03:32.923Z,26.26
2022-08-14T00:04:42.403Z,26.25
2022-08-14T00:05:47.818Z,26.24
2022-08-14T00:07:00.039Z,26.23
2022-08-14T00:08:02.755Z,26.22
2022-08-14T00:09:16.005Z,26.19
2022-08-14T00:10:52.148Z,26.19
2022-08-14T00:11:43.975Z,26.18
2022-08-14T00:12:56.423Z,26.17
2022-08-14T00:13:59.615Z,26.14
2022-08-14T00:15:09.716Z,26.15
2022-08-14T00:16:40.816Z,26.13
2022-08-14T00:17:38.104Z,26.12
2022-08-14T00:19:06.328Z,26.09
2022-08-14T00:20:12.889Z,26.08
2022-08-14T00:21:17.050Z,26.06
2022-08-14T00:22:44.702Z,26.05
2022-08-14T00:23:43.044Z,26.03
2022-08-14T00:24:44.868Z,26.02
2022-08-14T00:25:59.233Z,26.00
2022-08-14T00:27:09.532Z,25.99
2022-08-14T00:28:15.471Z,25.98
2022-08-14T00:29:21.337Z,25.96
2022-08-14T00:30:28.592Z,25.95
2022-08-14T00:31:35.274Z,25.93
2022-08-14T00:32:52.079Z,25.91
2022-08-14T00:33:58.776Z,25.90
2022-08-14T00:35:03.314Z,25.88
2022-08-14T00:36:35.938Z,25.87
2022-08-14T00:37:28.392Z,25.86
2022-08-14T00:38:32.004Z,25.84
2022-08-14T00:39:36.616Z,25.86
2022-08-14T00:40:39.387Z,25.83
2022-08-14T00:41:48.189Z,25.83
2022-08-14T00:42:54.971Z,25.82
2022-08-14T00:43:58.342Z,25.81
2022-08-14T00:45:00.901Z,25.79
2022-08-14T00:46:07.995Z,25.78
2022-08-14T00:47:11.171Z,25.76
2022-08-14T00:48:13.355Z,25.76
2022-08-14T00:49:38.057Z,25.74
2022-08-14T00:50:44.804Z,25.74
2022-08-14T00:51:47.678Z,25.72
2022-08-14T00:52:52.257Z,25.72
2022-08-14T00:53:54.961Z,25.72
2022-08-14T00:54:57.968Z,25.70
2022-08-14T00:56:01.336Z,25.70
2022-08-14T00:57:08.897Z,25.70
2022-08-14T00:58:33.052Z,25.69
2022-08-14T00:59:36.531Z,25.69
2022-08-14T01:00:47.315Z,25.67
2022-08-14T01:01:59.984Z,25.67
2022-08-14T01:03:02.008Z,25.66
2022-08-14T01:04:05.678Z,25.64
2022-08-14T01:05:08.000Z,25.64
2022-08-14T01:06:15.286Z,25.64
2022-08-14T01:07:21.035Z,25.63
2022-08-14T01:08:57.733Z,25.61
2022-08-14T01:09:50.681Z,25.61
2022-08-14T01:10:54.281Z,25.60
2022-08-14T01:12:03.563Z,25.59
2022-08-14T01:13:05.830Z,25.57
2022-08-14T01:14:25.404Z,25.57
2022-08-14T01:15:48.405Z,25.55
2022-08-14T01:16:55.649Z,25.55
2022-08-14T01:18:17.545Z,25.53
2022-08-14T01:19:36.776Z,25.50
2022-08-14T01:20:57.136Z,25.49
2022-08-14T01:22:01.150Z,25.48
2022-08-14T01:23:03.744Z,25.46
2022-08-14T01:24:09.855Z,25.45
2022-08-14T01:25:12.631Z,25.45
2022-08-14T01:26:34.433Z,25.43
2022-08-14T01:27:56.869Z,25.44
2022-08-14T01:29:00.246Z,25.42
2022-08-14T01:30:04.692Z,25.40
2022-08-14T01:31:12.193Z,25.38
2022-08-14T01:32:15.590Z,25.38
2022-08-14T01:33:17.513Z,25.37
2022-08-14T01:35:17.242Z,25.37
2022-08-14T01:36:03.700Z,25.36
2022-08-14T01:37:10.860Z,25.34
2022-08-14T01:38:14.974Z,25.34
2022-08-14T01:39:20.413Z,25.33
2022-08-14T01:40:25.357Z,25.33
2022-08-14T01:41:30.086Z,25.31
2022-08-14T01:42:36.191Z,25.30
2022-08-14T01:43:56.233Z,25.30
2022-08-14T01:44:59.910Z,25.30
2022-08-14T01:46:06.761Z,25.28
2022-08-14T01:47:21.427Z,25.28
2022-08-14T01:48:24.284Z,25.27
2022-08-14T01:49:35.480Z,25.27
2022-08-14T01:50:38.300Z,25.25
2022-08-14T01:51:44.486Z,25.25
2022-08-14T01:52:59.144Z,25.24
2022-08-14T01:54:06.378Z,25.22
2022-08-14T01:55:09.297Z,25.21
2022-08-14T01:56:18.704Z,25.20
2022-08-14T01:57:20.472Z,25.19
2022-08-14T01:58:28.935Z,25.18
2022-08-14T01:59:38.060Z,25.18
2022-08-14T02:00:41.146Z,25.17
2022-08-14T02:01:51.374Z,25.16
2022-08-14T02:03:01.674Z,25.16
2022-08-14T02:04:04.792Z,25.16
2022-08-14T02:05:35.702Z,25.16
2022-08-14T02:06:40.519Z,25.14
2022-08-14T02:07:55.658Z,25.12
2022-08-14T02:09:19.393Z,25.12
2022-08-14T02:10:26.075Z,25.08
2022-08-14T02:11:29.786Z,25.08
2022-08-14T02:12:32.054Z,25.09
2022-08-14T02:13:35.548Z,25.08
2022-08-14T02:14:40.243Z,25.06
2022-08-14T02:16:01.865Z,25.07
2022-08-14T02:17:24.484Z,25.06
2022-08-14T02:18:27.803Z,25.05
2022-08-14T02:19:35.593Z,25.05
2022-08-14T02:20:37.284Z,25.04
2022-08-14T02:21:43.764Z,25.04
2022-08-14T02:22:52.006Z,25.03
2022-08-14T02:23:57.433Z,25.04
2022-08-14T02:25:00.511Z,25.04
2022-08-14T02:26:24.796Z,25.02
2022-08-14T02:28:25.514Z,25.02
2022-08-14T02:28:58.028Z,25.02
2022-08-14T02:30:02.833Z,24.99
2022-08-14T02:31:08.850Z,24.99
2022-08-14T02:32:19.999Z,24.98
2022-08-14T02:33:33.551Z,24.97
2022-08-14T02:34:38.390Z,24.96
2022-08-14T02:35:43.344Z,24.96
2022-08-14T02:37:04.138Z,24.96
2022-08-14T02:38:11.825Z,24.94
2022-08-14T02:39:30.424Z,24.95
2022-08-14T02:40:34.453Z,24.92
2022-08-14T02:41:44.662Z,24.91
2022-08-14T02:42:55.243Z,24.90
2022-08-14T02:44:00.807Z,24.90
2022-08-14T02:45:03.596Z,24.88
2022-08-14T02:46:10.256Z,24.88
2022-08-14T02:47:14.804Z,24.87
2022-08-14T02:49:03.950Z,24.88
2022-08-14T02:49:45.507Z,24.87
2022-08-14T02:50:51.391Z,24.87
2022-08-14T02:51:57.439Z,24.85
2022-08-14T02:53:03.249Z,24.84
2022-08-14T02:54:08.321Z,24.83
2022-08-14T02:55:10.001Z,24.83
2022-08-14T02:56:30.224Z,24.82
2022-08-14T02:57:39.958Z,24.80
2022-08-14T02:58:46.723Z,24.80
2022-08-14T02:59:50.636Z,24.79
2022-08-14T03:00:54.421Z,24.78
2022-08-14T03:01:59.848Z,24.77
2022-08-14T03:03:07.942Z,24.77
2022-08-14T03:04:11.288Z,24.76
2022-08-14T03:05:15.203Z,24.76
2022-08-14T03:06:20.650Z,24.75
2022-08-14T03:07:37.910Z,24.75
2022-08-14T03:08:45.980Z,24.75
2022-08-14T03:10:27.887Z,24.74
2022-08-14T03:11:12.718Z,24.72
2022-08-14T03:12:26.958Z,24.71
2022-08-14T03:13:35.651Z,24.72
2022-08-14T03:14:38.702Z,24.71
2022-08-14T03:15:43.183Z,24.71
2022-08-14T03:16:49.259Z,24.70
2022-08-14T03:17:56.881Z,24.69
2022-08-14T03:19:01.135Z,24.69
2022-08-14T03:20:04.582Z,24.68
2022-08-14T03:21:08.546Z,24.69
2022-08-14T03:22:17.614Z,24.68
2022-08-14T03:23:20.839Z,24.66
2022-08-14T03:24:23.796Z,24.65
2022-08-14T03:25:26.593Z,24.65
2022-08-14T03:26:30.803Z,24.64
2022-08-14T03:27:35.377Z,24.63
2022-08-14T03:28:52.750Z,24.64
2022-08-14T03:29:54.972Z,24.63
2022-08-14T03:30:59.703Z,24.61
2022-08-14T03:32:01.721Z,24.61
2022-08-14T03:33:07.980Z,24.62
2022-08-14T03:34:10.311Z,24.60
2022-08-14T03:35:30.876Z,24.59
2022-08-14T03:37:39.445Z,24.59
2022-08-14T03:39:12.651Z,24.57
2022-08-14T03:39:35.408Z,24.57
2022-08-14T03:40:38.306Z,24.55
2022-08-14T03:41:41.204Z,24.55
2022-08-14T03:42:45.444Z,24.54
2022-08-14T03:43:57.441Z,24.53
2022-08-14T03:45:26.102Z,24.52
2022-08-14T03:46:39.229Z,24.51
2022-08-14T03:47:58.387Z,24.50
2022-08-14T03:49:02.775Z,24.48
2022-08-14T03:50:05.421Z,24.47
2022-08-14T03:51:13.101Z,24.45
2022-08-14T03:52:18.194Z,24.43
2022-08-14T03:53:43.952Z,24.40
2022-08-14T03:54:46.610Z,24.39
2022-08-14T03:55:59.009Z,24.36
2022-08-14T03:57:03.317Z,24.36
2022-08-14T03:58:07.925Z,24.35
2022-08-14T03:59:17.811Z,24.34
2022-08-14T04:00:43.618Z,24.33
2022-08-14T04:01:53.933Z,24.32
2022-08-14T04:03:06.534Z,24.30
2022-08-14T04:04:09.037Z,24.30
2022-08-14T04:05:13.113Z,24.27
2022-08-14T04:06:21.150Z,24.26
2022-08-14T04:07:25.033Z,24.25
2022-08-14T04:08:30.678Z,24.24
2022-08-14T04:09:34.021Z,24.24
2022-08-14T04:10:36.346Z,24.23
2022-08-14T04:11:39.284Z,24.22
2022-08-14T04:12:42.627Z,24.21
2022-08-14T04:13:55.985Z,24.21
2022-08-14T04:14:58.332Z,24.22
2022-08-14T04:16:06.695Z,24.20
2022-08-14T04:17:11.715Z,24.20
2022-08-14T04:18:15.452Z,24.20
2022-08-14T04:19:23.723Z,24.19
2022-08-14T04:20:25.951Z,24.17
2022-08-14T04:21:30.746Z,24.17
2022-08-14T04:22:33.131Z,24.16
2022-08-14T04:23:35.830Z,24.17
2022-08-14T04:24:39.340Z,24.14
2022-08-14T04:25:42.039Z,24.13
2022-08-14T04:26:44.477Z,24.12
2022-08-14T04:28:01.764Z,24.12
2022-08-14T04:29:14.804Z,24.12
2022-08-14T04:30:32.528Z,24.11
2022-08-14T04:32:58.863Z,24.10
2022-08-14T04:33:04.737Z,24.08
2022-08-14T04:34:20.986Z,24.08
2022-08-14T04:35:37.446Z,24.06
2022-08-14T04:37:10.781Z,24.07
2022-08-14T04:38:39.680Z,24.06
2022-08-14T04:40:05.345Z,24.05
2022-08-14T04:41:30.182Z,24.05
2022-08-14T04:42:51.507Z,24.04
2022-08-14T04:43:54.619Z,24.04
2022-08-14T04:45:00.492Z,24.03
2022-08-14T04:46:03.994Z,24.04
2022-08-14T04:47:30.762Z,24.04
2022-08-14T04:48:43.299Z,24.05
2022-08-14T04:49:57.050Z,24.06
2022-08-14T04:51:00.818Z,24.07
2022-08-14T04:52:04.042Z,24.08
2022-08-14T04:53:23.329Z,24.07
2022-08-14T04:54:29.369Z,24.07
2022-08-14T04:55:31.089Z,24.09
2022-08-14T04:56:34.591Z,24.09
2022-08-14T04:57:38.514Z,24.09
2022-08-14T04:58:42.953Z,24.10
2022-08-14T04:59:46.878Z,24.09
2022-08-14T05:00:52.352Z,24.08
2022-08-14T05:01:57.097Z,24.10
2022-08-14T05:03:03.067Z,24.10
2022-08-14T05:04:16.100Z,24.10
2022-08-14T05:05:20.767Z,24.12
2022-08-14T05:06:37.360Z,24.12
2022-08-14T05:07:53.851Z,24.12
2022-08-14T05:09:00.285Z,24.12
2022-08-14T05:10:12.764Z,24.12
2022-08-14T05:11:19.158Z,24.12
2022-08-14T05:13:13.607Z,24.13
2022-08-14T05:14:16.256Z,24.13
2022-08-14T05:15:10.281Z,24.15
2022-08-14T05:16:13.222Z,24.15
2022-08-14T05:17:17.417Z,24.15
2022-08-14T05:18:37.140Z,24.16
2022-08-14T05:21:04.380Z,24.17
2022-08-14T05:21:57.350Z,24.19
2022-08-14T05:22:30.339Z,24.20
2022-08-14T05:23:34.722Z,24.19
2022-08-14T05:24:40.567Z,24.21
2022-08-14T05:25:43.131Z,24.22
2022-08-14T05:26:46.741Z,24.21
2022-08-14T05:27:49.106Z,24.22
2022-08-14T05:28:51.685Z,24.25
2022-08-14T05:29:55.538Z,24.24
2022-08-14T05:31:02.777Z,24.26
2022-08-14T05:32:07.401Z,24.26
2022-08-14T05:33:10.184Z,24.28
2022-08-14T05:34:11.826Z,24.29
2022-08-14T05:35:14.415Z,24.30
2022-08-14T05:36:17.291Z,24.31
2022-08-14T05:37:18.958Z,24.33
2022-08-14T05:38:30.708Z,24.35
2022-08-14T05:39:33.541Z,24.36
2022-08-14T05:40:36.690Z,24.36
2022-08-14T05:41:53.035Z,24.38
2022-08-14T05:42:56.747Z,24.40
2022-08-14T05:43:59.831Z,24.42
2022-08-14T05:45:05.525Z,24.47
2022-08-14T05:46:18.305Z,24.54
2022-08-14T05:47:21.369Z,24.62
2022-08-14T05:48:33.506Z,24.72
2022-08-14T05:49:36.729Z,24.82
2022-08-14T05:50:40.308Z,24.92
2022-08-14T05:51:46.730Z,25.01
2022-08-14T05:52:50.339Z,25.11
2022-08-14T05:54:01.622Z,25.18
2022-08-14T05:55:14.979Z,25.28
2022-08-14T05:56:19.396Z,25.36
2022-08-14T05:57:21.122Z,25.45
2022-08-14T05:58:33.821Z,25.51
2022-08-14T05:59:43.676Z,25.58
2022-08-14T06:00:46.299Z,25.66
2022-08-14T06:01:50.573Z,25.70
2022-08-14T06:02:56.110Z,25.75
2022-08-14T06:04:00.058Z,25.79
2022-08-14T06:05:03.049Z,25.82
2022-08-14T06:06:05.808Z,25.86
2022-08-14T06:07:07.384Z,25.87
2022-08-14T06:08:31.186Z,25.90
2022-08-14T06:09:40.649Z,25.92
2022-08-14T06:10:46.189Z,25.97
2022-08-14T06:11:49.784Z,26.03
2022-08-14T06:12:56.028Z,26.08
2022-08-14T06:13:59.957Z,26.14
2022-08-14T06:15:02.159Z,26.19
2022-08-14T06:16:11.330Z,26.25
2022-08-14T06:17:25.699Z,26.30
2022-08-14T06:18:32.197Z,26.36
2022-08-14T06:19:34.039Z,26.40
2022-08-14T06:20:36.766Z,26.46
2022-08-14T06:21:41.688Z,26.50
2022-08-14T06:22:47.112Z,26.55
2022-08-14T06:23:51.791Z,26.58
2022-08-14T06:24:54.366Z,26.62
2022-08-14T06:25:56.439Z,26.67
2022-08-14T06:27:04.325Z,26.71
2022-08-14T06:28:28.157Z,26.74
2022-08-14T06:29:32.092Z,26.76
2022-08-14T06:30:46.052Z,26.80
2022-08-14T06:31:54.826Z,26.82
2022-08-14T06:33:06.643Z,26.86
2022-08-14T06:35:09.582Z,26.89
2022-08-14T06:35:35.621Z,26.93
2022-08-14T06:36:39.450Z,26.99
2022-08-14T06:37:43.627Z,27.02
2022-08-14T06:38:45.851Z,27.05
2022-08-14T06:39:52.911Z,27.08
2022-08-14T06:40:55.613Z,27.12
2022-08-14T06:42:00.030Z,27.15
2022-08-14T06:43:04.621Z,27.20
2022-08-14T06:44:09.706Z,27.22
2022-08-14T06:45:13.133Z,27.25
2022-08-14T06:46:23.258Z,27.26
2022-08-14T06:47:36.287Z,27.28
2022-08-14T06:48:38.978Z,27.29
2022-08-14T06:49:55.960Z,27.33
2022-08-14T06:51:00.708Z,27.35
2022-08-14T06:52:02.478Z,27.37
2022-08-14T06:53:07.236Z,27.36
2022-08-14T06:54:09.246Z,27.37
2022-08-14T06:55:13.864Z,27.36
2022-08-14T06:56:15.486Z,27.32
2022-08-14T06:57:18.192Z,27.32
2022-08-14T06:58:28.323Z,27.32
2022-08-14T06:59:33.825Z,27.30
2022-08-14T07:00:35.476Z,27.28
2022-08-14T07:01:56.570Z,27.26
2022-08-14T07:03:17.248Z,27.24
2022-08-14T07:04:37.577Z,27.18
2022-08-14T07:05:55.936Z,27.16
2022-08-14T07:07:00.222Z,27.12
2022-08-14T07:08:03.601Z,27.11
2022-08-14T07:09:05.544Z,27.10
2022-08-14T07:10:16.785Z,27.09
2022-08-14T07:11:20.040Z,27.06
2022-08-14T07:12:55.175Z,27.06
2022-08-14T07:13:44.628Z,27.04
2022-08-14T07:14:50.419Z,27.04
2022-08-14T07:15:55.173Z,27.04
2022-08-14T07:16:57.463Z,27.03
2022-08-14T07:18:00.661Z,27.04
2022-08-14T07:19:02.258Z,27.03
2022-08-14T07:20:05.807Z,27.03
2022-08-14T07:21:11.353Z,27.02
2022-08-14T07:22:17.390Z,27.02
2022-08-14T07:23:25.694Z,27.02
2022-08-14T07:24:31.388Z,27.04
2022-08-14T07:25:34.971Z,27.03
2022-08-14T07:26:40.170Z,27.03
2022-08-14T07:27:44.517Z,27.02
2022-08-14T07:28:47.411Z,27.01
2022-08-14T07:29:49.645Z,27.01
2022-08-14T07:30:57.557Z,27.01
2022-08-14T07:32:07.203Z,27.00
2022-08-14T07:33:14.059Z,27.02
2022-08-14T07:34:36.103Z,27.01
2022-08-14T07:35:57.910Z,27.00
2022-08-14T07:37:02.994Z,27.00
2022-08-14T07:38:05.182Z,27.01
2022-08-14T07:39:12.198Z,26.99
2022-08-14T07:40:15.086Z,27.02
2022-08-14T07:41:33.507Z,27.04
2022-08-14T07:42:36.048Z,27.03
2022-08-14T07:43:39.431Z,27.05
2022-08-14T07:44:46.579Z,27.05
2022-08-14T07:45:53.889Z,27.07
2022-08-14T07:46:55.938Z,27.09
2022-08-14T07:47:58.694Z,27.12
2022-08-14T07:49:00.850Z,27.15
2022-08-14T07:50:09.033Z,27.17
2022-08-14T07:51:11.494Z,27.16
2022-08-14T07:52:22.196Z,27.18
2022-08-14T07:53:36.519Z,27.18
2022-08-14T07:54:41.308Z,27.19
2022-08-14T07:55:46.398Z,27.21
2022-08-14T07:57:11.764Z,27.19
2022-08-14T07:58:34.022Z,27.20
2022-08-14T07:59:41.958Z,27.20
2022-08-14T08:00:46.592Z,27.22
2022-08-14T08:01:53.587Z,27.23
2022-08-14T08:03:00.676Z,27.27
2022-08-14T08:04:04.073Z,27.30
2022-08-14T08:05:21.466Z,27.32
2022-08-14T08:06:23.483Z,27.34
2022-08-14T08:07:31.327Z,27.37
2022-08-14T08:08:33.119Z,27.37
2022-08-14T08:09:37.991Z,27.41
2022-08-14T08:11:02.148Z,27.40
2022-08-14T08:12:14.110Z,27.42
2022-08-14T08:13:22.333Z,27.43
2022-08-14T08:14:26.888Z,27.46
2022-08-14T08:15:33.645Z,27.48
2022-08-14T08:16:36.569Z,27.49
2022-08-14T08:17:53.196Z,27.49
2022-08-14T08:19:01.745Z,27.50
2022-08-14T08:20:11.657Z,27.51
2022-08-14T08:21:14.554Z,27.54
2022-08-14T08:22:21.153Z,27.57
2022-08-14T08:23:30.994Z,27.61
2022-08-14T08:24:42.024Z,27.62
2022-08-14T08:25:46.120Z,27.64
2022-08-14T08:26:51.307Z,27.67
2022-08-14T08:28:03.512Z,27.69
2022-08-14T08:29:10.468Z,27.70
2022-08-14T08:30:14.698Z,27.72
2022-08-14T08:31:17.315Z,27.73
2022-08-14T08:32:20.407Z,27.74
2022-08-14T08:33:37.211Z,27.76
2022-08-14T08:34:45.223Z,27.76
2022-08-14T08:35:50.381Z,27.75
2022-08-14T08:36:52.735Z,27.77
2022-08-14T08:38:01.433Z,27.78
2022-08-14T08:39:15.128Z,27.80
2022-08-14T08:40:24.869Z,27.80
2022-08-14T08:41:41.437Z,27.82
2022-08-14T08:42:45.127Z,27.84
2022-08-14T08:43:48.126Z,27.85
2022-08-14T08:44:55.285Z,27.86
2022-08-14T08:46:00.274Z,27.89
2022-08-14T08:47:06.133Z,27.90
2022-08-14T08:48:20.784Z,27.93
2022-08-14T08:49:43.308Z,27.92
2022-08-14T08:50:57.258Z,27.91
2022-08-14T08:52:04.152Z,27.94
2022-08-14T08:53:09.361Z,27.97
2022-08-14T08:54:19.907Z,28.00
2022-08-14T08:55:28.334Z,28.03
2022-08-14T08:56:39.553Z,28.04
2022-08-14T08:57:42.956Z,28.04
2022-08-14T08:58:45.561Z,28.06
2022-08-14T08:59:49.121Z,28.06
2022-08-14T09:01:00.021Z,28.07
2022-08-14T09:02:05.322Z,28.07
2022-08-14T09:03:10.133Z,28.08
2022-08-14T09:04:14.931Z,28.09
2022-08-14T09:05:20.255Z,28.11
2022-08-14T09:07:00.915Z,28.13
2022-08-14T09:07:47.347Z,28.13
2022-08-14T09:08:51.775Z,28.17
2022-08-14T09:09:59.810Z,28.19
2022-08-14T09:11:19.035Z,28.21
2022-08-14T09:12:22.739Z,28.21
2022-08-14T09:13:26.995Z,28.24
2022-08-14T09:14:34.952Z,28.27
2022-08-14T09:15:42.927Z,28.28
2022-08-14T09:16:48.236Z,28.31
2022-08-14T09:17:54.626Z,28.33
2022-08-14T09:18:56.811Z,28.33
2022-08-14T09:20:01.951Z,28.36
2022-08-14T09:21:07.059Z,28.38
2022-08-14T09:22:34.788Z,28.39
2022-08-14T09:23:35.085Z,28.38
2022-08-14T09:24:58.289Z,28.40
2022-08-14T09:26:05.111Z,28.43
2022-08-14T09:27:23.400Z,28.45
2022-08-14T09:28:26.135Z,28.47
2022-08-14T09:29:28.867Z,28.50
2022-08-14T09:30:37.684Z,28.53
2022-08-14T09:31:53.472Z,28.55
2022-08-14T09:33:10.953Z,28.56
2022-08-14T09:34:28.056Z,28.57
2022-08-14T09:35:36.329Z,28.57
2022-08-14T09:36:49.992Z,28.59
2022-08-14T09:38:00.347Z,28.62
2022-08-14T09:39:23.249Z,28.64
2022-08-14T09:40:39.858Z,28.62
2022-08-14T09:42:20.943Z,28.63
2022-08-14T09:43:30.515Z,28.63
2022-08-14T09:44:45.721Z,28.65
2022-08-14T09:45:52.797Z,28.68
2022-08-14T09:46:56.116Z,28.71
2022-08-14T09:48:00.734Z,28.74
2022-08-14T09:49:05.768Z,28.77
2022-08-14T09:50:17.154Z,28.81
2022-08-14T09:51:25.379Z,28.84
2022-08-14T09:52:34.184Z,28.86
2022-08-14T09:54:18.850Z,28.86
2022-08-14T09:55:19.485Z,28.85
2022-08-14T09:56:30.878Z,28.87
2022-08-14T09:57:33.423Z,28.88
2022-08-14T09:58:39.369Z,28.93
2022-08-14T09:59:46.005Z,28.96
2022-08-14T10:00:50.814Z,28.98
2022-08-14T10:01:57.017Z,29.00
2022-08-14T10:03:05.051Z,29.00
2022-08-14T10:04:35.055Z,28.99
2022-08-14T10:05:40.623Z,28.98
2022-08-14T10:06:45.022Z,28.99
2022-08-14T10:07:53.869Z,28.99
2022-08-14T10:09:06.514Z,29.01
2022-08-14T10:10:28.760Z,29.01
2022-08-14T10:11:43.289Z,29.03
2022-08-14T10:12:48.536Z,29.04
2022-08-14T10:13:58.998Z,29.08
2022-08-14T10:15:00.794Z,29.10
2022-08-14T10:16:05.776Z,29.13
2022-08-14T10:17:33.086Z,29.14
2022-08-14T10:18:41.829Z,29.15
2022-08-14T10:19:49.355Z,29.18
2022-08-14T10:20:57.698Z,29.20
2022-08-14T10:23:14.317Z,29.21
2022-08-14T10:23:27.051Z,29.22
2022-08-14T10:24:36.385Z,29.24
2022-08-14T10:25:41.076Z,29.28
2022-08-14T10:26:58.750Z,29.32
2022-08-14T10:28:03.829Z,29.35
2022-08-14T10:29:19.954Z,29.39
2022-08-14T10:30:35.087Z,29.41
2022-08-14T10:31:43.154Z,29.42
2022-08-14T10:32:51.657Z,29.42
2022-08-14T10:34:03.954Z,29.43
2022-08-14T10:35:17.277Z,29.43
2022-08-14T10:36:34.509Z,29.42
2022-08-14T10:37:41.413Z,29.43
2022-08-14T10:38:58.265Z,29.42
2022-08-14T10:40:10.447Z,29.44
2022-08-14T10:41:15.640Z,29.45
2022-08-14T10:42:21.197Z,29.50
2022-08-14T10:43:26.527Z,29.52
2022-08-14T10:44:33.817Z,29.55
2022-08-14T10:45:42.043Z,29.58
2022-08-14T10:47:39.553Z,29.60
2022-08-14T10:48:23.616Z,29.61
2022-08-14T10:49:28.049Z,29.62
2022-08-14T10:50:31.501Z,29.66
2022-08-14T10:51:36.090Z,29.66
2022-08-14T10:52:42.304Z,29.68
2022-08-14T10:53:56.787Z,29.70
2022-08-14T10:55:08.564Z,29.70
2022-08-14T10:56:21.609Z,29.73
2022-08-14T10:57:48.797Z,29.72
2022-08-14T10:59:02.329Z,29.75
2022-08-14T11:00:13.966Z,29.77
2022-08-14T11:01:32.552Z,29.80
2022-08-14T11:02:53.925Z,29.80
2022-08-14T11:03:57.311Z,29.82
2022-08-14T11:05:07.468Z,29.85
2022-08-14T11:06:19.706Z,29.87
2022-08-14T11:07:22.000Z,29.89
2022-08-14T11:08:32.637Z,29.92
2022-08-14T11:09:34.345Z,29.94
2022-08-14T11:10:44.841Z,29.94
2022-08-14T11:11:47.622Z,29.95
2022-08-14T11:12:59.303Z,29.97
2022-08-14T11:14:01.029Z,30.00
2022-08-14T11:15:07.518Z,30.02
2022-08-14T11:16:16.082Z,30.03
2022-08-14T11:17:18.372Z,30.04
2022-08-14T11:18:32.144Z,30.05
2022-08-14T11:19:39.038Z,30.05
2022-08-14T11:20:54.110Z,30.07
2022-08-14T11:22:00.892Z,30.08
2022-08-14T11:23:04.482Z,30.10
2022-08-14T11:24:50.921Z,30.12
2022-08-14T11:25:44.340Z,30.12
2022-08-14T11:26:55.044Z,30.13
2022-08-14T11:28:00.948Z,30.16
2022-08-14T11:29:05.702Z,30.21
2022-08-14T11:30:51.588Z,30.24
2022-08-14T11:31:38.582Z,30.25
2022-08-14T11:32:42.661Z,30.28
2022-08-14T11:33:50.123Z,30.28
2022-08-14T11:34:53.366Z,30.29
2022-08-14T11:35:59.595Z,30.31
2022-08-14T11:37:21.969Z,30.34
2022-08-14T11:38:37.836Z,30.35
2022-08-14T11:39:40.682Z,30.39
2022-08-14T11:40:43.668Z,30.44
2022-08-14T11:41:55.956Z,30.47
2022-08-14T11:43:01.214Z,30.53
2022-08-14T11:44:17.665Z,30.54
2022-08-14T11:45:23.123Z,30.57
2022-08-14T11:46:30.217Z,30.60
2022-08-14T11:47:44.015Z,30.62
2022-08-14T11:49:05.832Z,30.59
2022-08-14T11:50:24.926Z,30.55
2022-08-14T11:51:53.438Z,30.51
2022-08-14T11:53:02.316Z,30.47
2022-08-14T11:54:08.195Z,30.48
2022-08-14T11:55:13.469Z,30.48
2022-08-14T11:56:15.489Z,30.50
2022-08-14T11:57:22.739Z,30.54
2022-08-14T11:58:30.841Z,30.59
2022-08-14T11:59:33.485Z,30.60
2022-08-14T12:00:47.286Z,30.61
2022-08-14T12:01:49.370Z,30.64
2022-08-14T12:03:03.195Z,30.68
2022-08-14T12:04:21.817Z,30.68
2022-08-14T12:05:38.819Z,30.69
2022-08-14T12:06:49.178Z,30.75
2022-08-14T12:07:55.136Z,30.81
2022-08-14T12:08:56.876Z,30.86
2022-08-14T12:10:25.470Z,30.93
2022-08-14T12:11:25.382Z,30.96
2022-08-14T12:12:36.005Z,31.05
2022-08-14T12:13:44.366Z,31.13
2022-08-14T12:15:00.088Z,31.18
2022-08-14T12:16:06.544Z,31.27
2022-08-14T12:17:14.911Z,31.32
2022-08-14T12:18:32.317Z,31.37
2022-08-14T12:19:45.447Z,31.41
2022-08-14T12:20:52.695Z,31.46
2022-08-14T12:21:55.544Z,31.49
2022-08-14T12:22:58.818Z,31.55
2022-08-14T12:24:05.555Z,31.57
2022-08-14T12:25:13.755Z,31.56
2022-08-14T12:26:39.063Z,31.54
2022-08-14T12:27:51.755Z,31.51
2022-08-14T12:29:08.569Z,31.51
2022-08-14T12:30:14.199Z,31.56
2022-08-14T12:31:23.585Z,31.58
2022-08-14T12:32:38.826Z,31.58
2022-08-14T12:33:46.952Z,31.58
2022-08-14T12:34:55.114Z,31.56
2022-08-14T12:35:58.680Z,31.56
2022-08-14T12:37:06.036Z,31.56
2022-08-14T12:38:10.429Z,31.53
2022-08-14T12:39:23.879Z,31.52
2022-08-14T12:40:28.713Z,31.52
2022-08-14T12:41:37.218Z,31.52
2022-08-14T12:42:47.527Z,31.55
2022-08-14T12:43:59.692Z,31.56
2022-08-14T12:45:04.364Z,31.62
2022-08-14T12:46:08.086Z,31.66
2022-08-14T12:47:31.151Z,31.72
2022-08-14T12:48:34.328Z,31.77
2022-08-14T12:49:37.728Z,31.83
2022-08-14T12:50:42.831Z,31.90
2022-08-14T12:51:57.047Z,31.95
2022-08-14T12:53:13.919Z,32.00
2022-08-14T12:54:27.312Z,32.05
2022-08-14T12:56:17.838Z,32.09
2022-08-14T12:57:05.409Z,32.09
2022-08-14T12:58:28.736Z,32.11
2022-08-14T12:59:37.191Z,32.13
2022-08-14T13:01:16.275Z,32.15
2022-08-14T13:02:26.009Z,32.16
2022-08-14T13:03:30.169Z,32.18
2022-08-14T13:04:35.443Z,32.21
2022-08-14T13:05:37.670Z,32.25
2022-08-14T13:06:44.617Z,32.26
2022-08-14T13:07:46.255Z,32.27
2022-08-14T13:08:53.017Z,32.28
2022-08-14T13:09:55.544Z,32.27
2022-08-14T13:10:59.514Z,32.24
2022-08-14T13:12:34.932Z,32.21
2022-08-14T13:13:34.296Z,32.12
2022-08-14T13:14:40.904Z,32.05
2022-08-14T13:15:46.183Z,32.00
2022-08-14T13:16:53.062Z,31.95
2022-08-14T13:18:04.663Z,31.89
2022-08-14T13:19:11.246Z,31.82
2022-08-14T13:20:23.528Z,31.77
2022-08-14T13:21:27.300Z,31.71
2022-08-14T13:22:33.566Z,31.67
2022-08-14T13:23:43.755Z,31.61
2022-08-14T13:24:49.276Z,31.59
2022-08-14T13:25:55.947Z,31.55
2022-08-14T13:27:00.318Z,31.53
2022-08-14T13:28:04.177Z,31.52
2022-08-14T13:29:16.095Z,31.49
2022-08-14T13:30:23.896Z,31.48
2022-08-14T13:31:30.480Z,31.44
2022-08-14T13:32:39.191Z,31.42
2022-08-14T13:33:42.007Z,31.37
2022-08-14T13:34:48.147Z,31.35
2022-08-14T13:35:49.851Z,31.34
2022-08-14T13:36:58.889Z,31.35
2022-08-14T13:38:05.696Z,31.34
2022-08-14T13:39:09.716Z,31.38
2022-08-14T13:40:14.560Z,31.36
2022-08-14T13:41:23.851Z,31.37
2022-08-14T13:42:30.542Z,31.35
2022-08-14T13:43:36.863Z,31.36
2022-08-14T13:44:53.478Z,31.33
2022-08-14T13:46:00.925Z,31.34
2022-08-14T13:47:06.480Z,31.37
2022-08-14T13:48:27.701Z,31.43
2022-08-14T13:49:37.378Z,31.47
2022-08-14T13:50:41.270Z,31.52
2022-08-14T13:51:49.295Z,31.55
2022-08-14T13:53:01.325Z,31.55
2022-08-14T13:54:10.736Z,31.56
2022-08-14T13:55:19.011Z,31.58
2022-08-14T13:56:36.574Z,31.60
2022-08-14T13:57:49.732Z,31.63
2022-08-14T13:59:04.963Z,31.66
2022-08-14T14:00:12.830Z,31.71
2022-08-14T14:01:19.078Z,31.72
2022-08-14T14:02:33.750Z,31.72
2022-08-14T14:03:40.316Z,31.75
2022-08-14T14:04:46.363Z,31.77
2022-08-14T14:05:54.871Z,31.79
2022-08-14T14:07:00.517Z,31.81
2022-08-14T14:08:18.526Z,31.85
2022-08-14T14:09:37.678Z,31.84
2022-08-14T14:10:56.860Z,31.88
2022-08-14T14:11:59.504Z,31.93
2022-08-14T14:13:04.326Z,31.99
2022-08-14T14:14:09.979Z,32.04
2022-08-14T14:15:48.682Z,32.05
2022-08-14T14:16:55.200Z,32.07
2022-08-14T14:17:59.515Z,32.11
2022-08-14T14:19:08.932Z,32.14
2022-08-14T14:20:34.546Z,32.18
2022-08-14T14:21:37.223Z,32.20
2022-08-14T14:23:02.615Z,32.26
2022-08-14T14:24:04.710Z,32.30
2022-08-14T14:25:06.988Z,32.34
2022-08-14T14:26:13.765Z,32.38
2022-08-14T14:27:39.665Z,32.40
2022-08-14T14:28:43.953Z,32.37
2022-08-14T14:29:50.669Z,32.38
2022-08-14T14:31:01.010Z,32.37
2022-08-14T14:32:04.147Z,32.38
2022-08-14T14:33:28.941Z,32.39
2022-08-14T14:34:34.311Z,32.39
2022-08-14T14:35:39.874Z,32.40
2022-08-14T14:36:45.126Z,32.40
2022-08-14T14:37:51.986Z,32.39
2022-08-14T14:38:56.381Z,32.38
2022-08-14T14:40:53.881Z,32.36
2022-08-14T14:41:23.987Z,32.32
2022-08-14T14:42:35.462Z,32.30
2022-08-14T14:43:44.820Z,32.26
2022-08-14T14:44:53.001Z,32.22
2022-08-14T14:45:59.482Z,32.18
2022-08-14T14:47:01.673Z,32.17
2022-08-14T14:48:07.934Z,32.16
2022-08-14T14:49:14.448Z,32.17